createdAt,value
2023-02-09T00:01:20.155Z,103102.20
2023-02-09T00:03:48.745Z,103113.84
2023-02-09T00:06:19.411Z,103109.95
2023-02-09T00:08:47.331Z,103104.33
2023-02-09T00:11:50.389Z,103102.46
2023-02-09T00:14:21.979Z,103112.99
2023-02-09T00:16:51.303Z,103098.38
2023-02-09T00:19:20.300Z,103103.97
2023-02-09T00:21:49.012Z,103105.27
2023-02-09T00:24:16.838Z,103109.37
2023-02-09T00:26:44.920Z,103109.95
2023-02-09T00:29:13.270Z,103107.50
2023-02-09T00:31:41.453Z,103110.77
2023-02-09T00:34:10.500Z,103110.05
2023-02-09T00:36:38.304Z,103103.38
2023-02-09T00:39:05.995Z,103105.87
2023-02-09T00:41:52.499Z,103114.40
2023-02-09T00:44:20.405Z,103103.97
2023-02-09T00:46:49.263Z,103098.84
2023-02-09T00:49:17.200Z,103100.47
2023-02-09T00:51:45.323Z,103090.04
2023-02-09T00:54:14.012Z,103103.28
2023-02-09T00:56:41.632Z,103102.46
2023-02-09T00:59:09.335Z,103092.26
2023-02-09T01:01:37.247Z,103094.95
2023-02-09T01:04:05.781Z,103091.67
2023-02-09T01:06:33.624Z,103089.12
2023-02-09T01:09:02.481Z,103096.97
2023-02-09T01:11:30.971Z,103098.48
2023-02-09T01:14:01.392Z,103095.89
2023-02-09T01:16:32.704Z,103098.12
2023-02-09T01:19:02.433Z,103094.39
2023-02-09T01:21:31.611Z,103101.88
2023-02-09T01:23:59.660Z,103093.99
2023-02-09T01:26:27.405Z,103092.49
2023-02-09T01:28:55.223Z,103100.63
2023-02-09T01:31:29.544Z,103086.48
2023-02-09T01:33:58.995Z,103088.24
2023-02-09T01:36:27.845Z,103086.57
2023-02-09T01:38:57.693Z,103090.23
2023-02-09T01:41:26.087Z,103088.11
2023-02-09T01:44:00.471Z,103084.35
2023-02-09T01:46:31.047Z,103073.46
2023-02-09T01:49:05.007Z,103072.64
2023-02-09T01:51:37.706Z,103082.65
2023-02-09T01:54:13.438Z,103076.96
2023-02-09T01:56:44.964Z,103078.82
2023-02-09T01:59:14.637Z,103075.98
2023-02-09T02:01:43.133Z,103076.04
2023-02-09T02:04:11.569Z,103065.88
2023-02-09T02:06:40.099Z,103070.58
2023-02-09T02:09:14.748Z,103079.41
2023-02-09T02:11:45.951Z,103074.18
2023-02-09T02:14:39.197Z,103068.42
2023-02-09T02:17:28.092Z,103075.20
2023-02-09T02:20:23.539Z,103079.18
2023-02-09T02:23:08.617Z,103078.69
2023-02-09T02:26:20.614Z,103067.48
2023-02-09T02:29:25.406Z,103069.41
2023-02-09T02:32:19.196Z,103070.35
2023-02-09T02:34:55.678Z,103068.52
2023-02-09T02:38:08.479Z,103065.02
2023-02-09T02:40:52.135Z,103065.41
2023-02-09T02:43:42.697Z,103063.52
2023-02-09T02:46:16.553Z,103058.58
2023-02-09T02:48:56.305Z,103067.21
2023-02-09T02:51:29.515Z,103059.59
2023-02-09T02:54:04.296Z,103058.32
2023-02-09T02:56:40.082Z,103049.23
2023-02-09T02:59:13.671Z,103051.02
2023-02-09T03:01:47.373Z,103041.38
2023-02-09T03:04:17.319Z,103042.36
2023-02-09T03:06:45.081Z,103044.68
2023-02-09T03:09:12.798Z,103046.97
2023-02-09T03:11:48.241Z,103048.15
2023-02-09T03:20:42.337Z,103060.58
2023-02-09T03:23:22.061Z,103067.15
2023-02-09T03:25:53.439Z,103056.36
2023-02-09T03:28:27.737Z,103053.28
2023-02-09T03:30:56.495Z,103059.56
2023-02-09T03:33:27.652Z,103063.13
2023-02-09T03:35:59.088Z,103069.21
2023-02-09T03:38:27.094Z,103067.09
2023-02-09T03:40:55.703Z,103064.11
2023-02-09T03:43:43.584Z,103069.80
2023-02-09T03:46:11.326Z,103080.00
2023-02-09T03:48:39.311Z,103081.54
2023-02-09T03:51:08.011Z,103074.41
2023-02-09T03:53:37.567Z,103076.17
2023-02-09T03:56:05.838Z,103075.48
2023-02-09T03:58:33.520Z,103083.10
2023-02-09T04:01:11.776Z,103086.24
2023-02-09T04:03:40.988Z,103083.83
2023-02-09T04:06:11.198Z,103081.57
2023-02-09T04:08:39.247Z,103093.99
2023-02-09T04:11:07.067Z,103085.46
2023-02-09T04:13:34.859Z,103086.60
2023-02-09T04:16:02.779Z,103089.91
2023-02-09T04:18:30.468Z,103095.99
2023-02-09T04:20:58.412Z,103097.56
2023-02-09T04:23:26.110Z,103092.10
2023-02-09T04:25:53.768Z,103097.36
2023-02-09T04:28:21.491Z,103089.22
2023-02-09T04:30:56.831Z,103085.13
2023-02-09T04:33:26.036Z,103091.70
2023-02-09T04:35:54.145Z,103094.98
2023-02-09T04:38:23.111Z,103090.34
2023-02-09T04:40:52.819Z,103090.13
2023-02-09T04:43:21.115Z,103096.22
2023-02-09T04:45:49.422Z,103096.80
2023-02-09T04:48:19.737Z,103097.98
2023-02-09T04:50:47.807Z,103098.54
2023-02-09T04:53:16.549Z,103102.98
2023-02-09T04:55:46.221Z,103106.62
2023-02-09T04:58:35.414Z,103104.00
2023-02-09T05:01:03.780Z,103105.02
2023-02-09T05:03:31.990Z,103103.51
2023-02-09T05:06:03.816Z,103111.39
2023-02-09T05:08:32.211Z,103103.55
2023-02-09T05:11:00.322Z,103104.82
2023-02-09T05:13:28.441Z,103104.63
2023-02-09T05:15:56.415Z,103103.12
2023-02-09T05:18:26.138Z,103105.70
2023-02-09T05:20:53.931Z,103104.69
2023-02-09T05:23:21.655Z,103117.54
2023-02-09T05:25:49.532Z,103117.21
2023-02-09T05:28:17.280Z,103120.16
2023-02-09T05:30:45.386Z,103125.38
2023-02-09T05:33:13.464Z,103121.92
2023-02-09T05:35:41.238Z,103124.38
2023-02-09T05:38:09.008Z,103128.95
2023-02-09T05:40:36.753Z,103128.63
2023-02-09T05:43:04.664Z,103128.82
2023-02-09T05:45:32.303Z,103124.96
2023-02-09T05:48:00.098Z,103125.45
2023-02-09T05:50:27.876Z,103125.95
2023-02-09T05:52:55.613Z,103122.31
2023-02-09T05:55:23.358Z,103123.75
2023-02-09T05:57:51.055Z,103119.63
2023-02-09T06:00:18.957Z,103116.23
2023-02-09T06:02:46.746Z,103122.02
2023-02-09T06:05:14.556Z,103125.19
2023-02-09T06:07:42.265Z,103124.83
2023-02-09T06:10:10.332Z,103124.05
2023-02-09T06:12:39.284Z,103127.31
2023-02-09T06:15:08.234Z,103133.62
2023-02-09T06:17:35.932Z,103136.60
2023-02-09T06:20:04.178Z,103139.02
2023-02-09T06:22:32.845Z,103137.12
2023-02-09T06:25:00.636Z,103146.22
2023-02-09T06:27:28.424Z,103154.00
2023-02-09T06:29:56.227Z,103151.38
2023-02-09T06:32:24.001Z,103155.70
2023-02-09T06:34:51.869Z,103145.04
2023-02-09T06:37:19.602Z,103153.97
2023-02-09T06:39:47.328Z,103155.63
2023-02-09T06:42:15.136Z,103158.28
2023-02-09T06:44:42.824Z,103157.04
2023-02-09T06:47:10.573Z,103157.40
2023-02-09T06:49:38.349Z,103161.75
2023-02-09T06:52:06.692Z,103159.55
2023-02-09T06:54:34.601Z,103159.82
2023-02-09T06:57:02.325Z,103166.88
2023-02-09T06:59:30.089Z,103164.17
2023-02-09T07:01:57.955Z,103156.48
2023-02-09T07:04:25.714Z,103161.98
2023-02-09T07:06:53.440Z,103161.36
2023-02-09T07:09:21.078Z,103158.55
2023-02-09T07:11:48.829Z,103164.95
2023-02-09T07:14:16.525Z,103164.27
2023-02-09T07:16:44.239Z,103168.23
2023-02-09T07:19:12.118Z,103169.11
2023-02-09T07:21:39.861Z,103177.25
2023-02-09T07:24:07.784Z,103174.44
2023-02-09T07:26:35.651Z,103176.17
2023-02-09T07:29:03.317Z,103191.15
2023-02-09T07:31:31.748Z,103181.80
2023-02-09T07:33:59.610Z,103184.25
2023-02-09T07:36:27.351Z,103189.19
2023-02-09T07:38:56.483Z,103184.70
2023-02-09T07:41:28.932Z,103191.28
2023-02-09T07:43:57.664Z,103194.58
2023-02-09T07:46:26.699Z,103191.24
2023-02-09T07:48:54.499Z,103195.17
2023-02-09T07:51:26.590Z,103202.07
2023-02-09T07:53:54.812Z,103199.55
2023-02-09T07:56:23.791Z,103200.86
2023-02-09T07:58:51.838Z,103203.34
2023-02-09T08:01:20.959Z,103210.44
2023-02-09T08:03:50.730Z,103204.42
2023-02-09T08:06:42.518Z,103214.49
2023-02-09T08:09:11.775Z,103206.91
2023-02-09T08:11:45.985Z,103209.36
2023-02-09T08:14:44.167Z,103211.35
2023-02-09T08:17:22.237Z,103209.66
2023-02-09T08:20:05.812Z,103216.42
2023-02-09T08:22:39.948Z,103219.70
2023-02-09T08:25:08.420Z,103224.50
2023-02-09T08:27:38.579Z,103218.22
2023-02-09T08:30:06.761Z,103218.84
2023-02-09T08:32:34.503Z,103225.05
2023-02-09T08:35:02.208Z,103222.05
2023-02-09T08:37:30.272Z,103215.97
2023-02-09T08:39:58.457Z,103212.30
2023-02-09T08:42:26.296Z,103212.20
2023-02-09T08:44:53.981Z,103218.81
2023-02-09T08:47:21.633Z,103214.62
2023-02-09T08:49:49.977Z,103212.44
2023-02-09T08:52:18.452Z,103208.97
2023-02-09T08:54:47.553Z,103215.51
2023-02-09T08:57:15.320Z,103220.58
2023-02-09T08:59:43.039Z,103219.53
2023-02-09T09:02:10.885Z,103220.51
2023-02-09T09:04:38.676Z,103218.02
2023-02-09T09:07:06.566Z,103215.70
2023-02-09T09:09:34.362Z,103213.02
2023-02-09T09:12:02.267Z,103219.59
2023-02-09T09:14:30.037Z,103223.48
2023-02-09T09:16:59.520Z,103219.66
2023-02-09T09:19:29.672Z,103227.15
2023-02-09T09:22:04.373Z,103228.59
2023-02-09T09:24:32.838Z,103232.71
2023-02-09T09:27:00.525Z,103224.05
2023-02-09T09:29:28.254Z,103226.98
2023-02-09T09:31:56.191Z,103238.50
2023-02-09T09:34:23.952Z,103234.05
2023-02-09T09:36:51.731Z,103226.70
2023-02-09T09:39:20.074Z,103232.19
2023-02-09T09:41:51.307Z,103233.36
2023-02-09T09:44:53.010Z,103230.95
2023-02-09T09:47:34.257Z,103230.81
2023-02-09T09:50:02.006Z,103233.49
2023-02-09T09:52:37.841Z,103233.76
2023-02-09T09:55:09.428Z,103233.98
2023-02-09T09:57:42.958Z,103233.07
2023-02-09T10:00:25.474Z,103232.80
2023-02-09T10:02:53.708Z,103237.94
2023-02-09T10:05:30.787Z,103240.63
2023-02-09T10:08:11.843Z,103241.77
2023-02-09T10:10:44.878Z,103237.29
2023-02-09T10:13:45.492Z,103237.98
2023-02-09T10:16:19.446Z,103236.66
2023-02-09T10:18:55.437Z,103245.07
2023-02-09T10:21:25.950Z,103245.62
2023-02-09T10:24:02.668Z,103243.04
2023-02-09T10:26:33.500Z,103239.38
2023-02-09T10:29:14.476Z,103246.77
2023-02-09T10:31:52.117Z,103233.95
2023-02-09T10:34:24.766Z,103234.97
2023-02-09T10:36:52.532Z,103233.43
2023-02-09T10:39:29.770Z,103228.72
2023-02-09T10:42:02.506Z,103226.10
2023-02-09T10:44:37.569Z,103220.28
2023-02-09T10:47:28.342Z,103224.37
2023-02-09T10:50:14.739Z,103223.00
2023-02-09T10:52:59.404Z,103213.22
2023-02-09T10:55:42.759Z,103215.38
2023-02-09T10:58:10.470Z,103216.39
2023-02-09T11:01:07.924Z,103212.56
2023-02-09T11:03:37.103Z,103210.27
2023-02-09T11:06:16.817Z,103207.23
2023-02-09T11:08:47.304Z,103195.40
2023-02-09T11:11:34.249Z,103194.68
2023-02-09T11:14:02.527Z,103189.64
2023-02-09T11:16:45.696Z,103189.55
2023-02-09T11:19:27.488Z,103186.93
2023-02-09T11:22:16.197Z,103177.12
2023-02-09T11:25:01.702Z,103175.71
2023-02-09T11:27:45.155Z,103164.17
2023-02-09T11:30:12.762Z,103167.67
2023-02-09T11:32:51.321Z,103163.05
2023-02-09T11:35:20.409Z,103156.26
2023-02-09T11:38:00.172Z,103155.57
2023-02-09T11:40:59.828Z,103152.95
2023-02-09T11:43:42.296Z,103152.76
2023-02-09T11:46:22.140Z,103160.54
2023-02-09T11:49:19.034Z,103160.93
2023-02-09T11:51:49.243Z,103154.98
2023-02-09T11:54:24.167Z,103150.66
2023-02-09T11:56:56.970Z,103151.16
2023-02-09T11:59:34.130Z,103141.12
2023-02-09T12:02:29.540Z,103144.42
2023-02-09T12:05:02.123Z,103139.64
2023-02-09T12:07:33.310Z,103127.25
2023-02-09T12:10:25.844Z,103133.34
2023-02-09T12:13:08.349Z,103147.46
2023-02-09T12:15:58.686Z,103138.66
2023-02-09T12:18:30.044Z,103131.80
2023-02-09T12:21:08.469Z,103133.01
2023-02-09T12:23:40.382Z,103128.56
2023-02-09T12:26:14.310Z,103117.60
2023-02-09T12:28:47.499Z,103121.20
2023-02-09T12:31:23.474Z,103122.02
2023-02-09T12:34:01.621Z,103115.12
2023-02-09T12:36:32.710Z,103110.31
2023-02-09T12:39:24.196Z,103117.96
2023-02-09T12:41:52.051Z,103111.95
2023-02-09T12:44:20.709Z,103101.81
2023-02-09T12:46:57.061Z,103098.64
2023-02-09T12:49:30.660Z,103095.89
2023-02-09T12:52:11.495Z,103082.62
2023-02-09T12:54:59.502Z,103084.28
2023-02-09T12:57:27.271Z,103086.34
2023-02-09T12:59:56.428Z,103087.98
2023-02-09T13:02:39.333Z,103081.93
2023-02-09T13:05:30.100Z,103080.33
2023-02-09T13:08:06.926Z,103069.83
2023-02-09T13:11:22.223Z,103074.73
2023-02-09T13:14:05.260Z,103079.64
2023-02-09T13:16:54.755Z,103064.70
2023-02-09T13:19:36.450Z,103066.76
2023-02-09T13:22:41.017Z,103070.78
2023-02-09T13:25:27.999Z,103074.05
2023-02-09T13:27:55.842Z,103064.80
2023-02-09T13:30:32.049Z,103062.38
2023-02-09T13:33:19.039Z,103076.60
2023-02-09T13:36:02.158Z,103068.06
2023-02-09T13:38:34.013Z,103066.43
2023-02-09T13:41:02.117Z,103064.86
2023-02-09T13:43:32.886Z,103079.09
2023-02-09T13:46:03.390Z,103075.03
2023-02-09T13:48:37.727Z,103067.73
2023-02-09T13:51:17.584Z,103075.42
2023-02-09T13:54:03.158Z,103065.25
2023-02-09T13:56:33.515Z,103061.98
2023-02-09T13:59:02.234Z,103065.97
2023-02-09T14:01:34.857Z,103064.34
2023-02-09T14:04:14.380Z,103065.55
2023-02-09T14:07:02.605Z,103067.57
2023-02-09T14:09:45.068Z,103062.70
2023-02-09T14:12:19.958Z,103059.89
2023-02-09T14:15:15.302Z,103055.41
2023-02-09T14:17:52.620Z,103052.59
2023-02-09T14:20:24.363Z,103055.87
2023-02-09T14:23:00.882Z,103058.25
2023-02-09T14:25:31.093Z,103066.36
2023-02-09T14:27:59.473Z,103065.55
2023-02-09T14:30:37.299Z,103063.91
2023-02-09T14:33:05.161Z,103063.55
2023-02-09T14:35:39.906Z,103071.63
2023-02-09T14:38:37.949Z,103071.63
2023-02-09T14:41:31.767Z,103065.19
2023-02-09T14:44:01.889Z,103068.00
2023-02-09T14:46:30.360Z,103072.38
2023-02-09T14:48:59.136Z,103073.98
2023-02-09T14:51:28.732Z,103077.97
2023-02-09T14:53:56.519Z,103072.31
2023-02-09T14:56:31.575Z,103069.90
2023-02-09T14:58:59.298Z,103075.91
2023-02-09T15:01:27.068Z,103071.40
2023-02-09T15:03:54.879Z,103076.66
2023-02-09T15:06:23.209Z,103078.66
2023-02-09T15:08:51.153Z,103077.02
2023-02-09T15:11:42.830Z,103073.75
2023-02-09T15:14:12.435Z,103080.20
2023-02-09T15:16:40.195Z,103080.98
2023-02-09T15:19:14.728Z,103083.83
2023-02-09T15:21:42.390Z,103089.84
2023-02-09T15:24:10.078Z,103095.89
2023-02-09T15:26:38.384Z,103093.83
2023-02-09T15:29:17.793Z,103097.49
2023-02-09T15:31:45.555Z,103101.05
2023-02-09T15:34:14.714Z,103095.01
2023-02-09T15:36:43.535Z,103106.39
2023-02-09T15:39:24.373Z,103106.78
2023-02-09T15:42:10.899Z,103107.53
2023-02-09T15:44:57.400Z,103114.47
2023-02-09T15:47:43.516Z,103116.88
2023-02-09T15:50:11.175Z,103121.33
2023-02-09T15:52:38.936Z,103117.77
2023-02-09T15:55:07.174Z,103123.42
2023-02-09T15:57:34.884Z,103118.95
2023-02-09T16:00:02.643Z,103122.61
2023-02-09T16:02:30.434Z,103116.10
2023-02-09T16:04:58.086Z,103123.03
2023-02-09T16:07:27.451Z,103118.20
2023-02-09T16:09:55.198Z,103122.67
2023-02-09T16:12:22.969Z,103120.61
2023-02-09T16:14:52.942Z,103124.60
2023-02-09T16:17:20.970Z,103126.27
2023-02-09T16:19:50.166Z,103129.08
2023-02-09T16:22:18.143Z,103126.63
2023-02-09T16:24:47.399Z,103122.97
2023-02-09T16:27:25.466Z,103122.18
2023-02-09T16:29:53.208Z,103125.38
2023-02-09T16:32:24.108Z,103128.98
2023-02-09T16:34:52.553Z,103123.62
2023-02-09T16:37:30.078Z,103130.12
2023-02-09T16:39:59.385Z,103129.28
2023-02-09T16:42:27.132Z,103147.43
2023-02-09T16:44:54.860Z,103151.02
2023-02-09T16:47:27.141Z,103153.77
2023-02-09T16:50:02.286Z,103152.56
2023-02-09T16:52:31.378Z,103160.57
2023-02-09T16:55:02.031Z,103161.36
2023-02-09T16:57:30.402Z,103160.90
2023-02-09T16:59:58.089Z,103163.68
2023-02-09T17:02:44.825Z,103162.80
2023-02-09T17:05:20.971Z,103178.10
2023-02-09T17:07:55.332Z,103177.19
2023-02-09T17:10:26.885Z,103186.02
2023-02-09T17:12:54.730Z,103173.00
2023-02-09T17:15:30.479Z,103175.74
2023-02-09T17:18:07.380Z,103176.89
2023-02-09T17:20:45.897Z,103175.19
2023-02-09T17:23:22.877Z,103174.30
2023-02-09T17:25:52.825Z,103170.22
2023-02-09T17:28:20.802Z,103176.20
2023-02-09T17:30:51.345Z,103182.13
2023-02-09T17:33:27.353Z,103190.16
2023-02-09T17:36:24.482Z,103183.59
2023-02-09T17:38:46.174Z,103189.61
2023-02-09T17:41:17.691Z,103194.74
2023-02-09T17:43:45.855Z,103188.14
2023-02-09T17:46:17.609Z,103196.15
2023-02-09T17:48:46.806Z,103204.49
2023-02-09T17:51:23.007Z,103204.75
2023-02-09T17:53:50.733Z,103204.23
2023-02-09T17:56:19.521Z,103205.34
2023-02-09T17:58:48.115Z,103215.31
2023-02-09T18:01:28.908Z,103209.95
2023-02-09T18:03:59.564Z,103215.48
2023-02-09T18:06:37.468Z,103215.38
2023-02-09T18:09:08.356Z,103226.59
2023-02-09T18:11:57.889Z,103222.48
2023-02-09T18:14:27.444Z,103222.41
2023-02-09T18:16:56.184Z,103220.67
2023-02-09T18:19:25.265Z,103224.60
2023-02-09T18:21:54.048Z,103231.07
2023-02-09T18:24:23.769Z,103230.98
2023-02-09T18:26:52.211Z,103235.36
2023-02-09T18:29:30.267Z,103234.90
2023-02-09T18:32:02.112Z,103235.75
2023-02-09T18:34:30.353Z,103231.63
2023-02-09T18:36:58.479Z,103240.39
2023-02-09T18:39:26.366Z,103240.39
2023-02-09T18:41:56.865Z,103235.85
2023-02-09T18:44:29.638Z,103238.20
2023-02-09T18:46:59.310Z,103234.84
2023-02-09T18:49:27.372Z,103237.19
2023-02-09T18:51:55.080Z,103244.88
2023-02-09T18:54:22.977Z,103250.50
2023-02-09T18:56:50.782Z,103244.02
2023-02-09T18:59:19.194Z,103248.05
2023-02-09T19:01:47.638Z,103254.03
2023-02-09T19:04:15.338Z,103253.57
2023-02-09T19:06:42.993Z,103271.69
2023-02-09T19:09:10.742Z,103274.50
2023-02-09T19:11:38.467Z,103272.15
2023-02-09T19:14:24.752Z,103277.77
2023-02-09T19:16:52.433Z,103281.79
2023-02-09T19:19:20.981Z,103278.16
2023-02-09T19:21:48.951Z,103282.97
2023-02-09T19:24:16.828Z,103279.80
2023-02-09T19:26:44.667Z,103290.62
2023-02-09T19:29:12.343Z,103295.33
2023-02-09T19:31:40.101Z,103298.08
2023-02-09T19:34:07.890Z,103304.45
2023-02-09T19:36:35.678Z,103297.52
2023-02-09T19:39:03.527Z,103299.55
2023-02-09T19:41:31.366Z,103301.90
2023-02-09T19:43:59.393Z,103303.99
2023-02-09T19:46:27.441Z,103297.16
2023-02-09T19:48:55.110Z,103292.32
2023-02-09T19:51:23.691Z,103298.70
2023-02-09T19:53:51.899Z,103299.09
2023-02-09T19:56:24.641Z,103295.33
2023-02-09T19:58:52.894Z,103294.52
2023-02-09T20:01:21.000Z,103302.42
2023-02-09T20:03:53.427Z,103309.95
2023-02-09T20:06:21.118Z,103308.12
2023-02-09T20:08:49.217Z,103319.10
2023-02-09T20:11:20.091Z,103319.82
2023-02-09T20:13:53.380Z,103334.51
2023-02-09T20:16:26.272Z,103340.39
2023-02-09T20:18:55.081Z,103340.75
2023-02-09T20:21:24.378Z,103338.30
2023-02-09T20:23:56.738Z,103335.71
2023-02-09T20:26:30.128Z,103339.93
2023-02-09T20:28:58.779Z,103341.57
2023-02-09T20:31:29.165Z,103348.27
2023-02-09T20:33:57.511Z,103347.81
2023-02-09T20:36:25.997Z,103350.52
2023-02-09T20:38:54.061Z,103349.58
2023-02-09T20:41:22.177Z,103353.50
2023-02-09T20:44:08.663Z,103356.19
2023-02-09T20:46:55.053Z,103350.01
2023-02-09T20:49:25.257Z,103356.19
2023-02-09T20:51:53.000Z,103353.99
2023-02-09T20:54:21.169Z,103354.95
2023-02-09T20:56:48.960Z,103361.97
2023-02-09T20:59:17.080Z,103359.52
2023-02-09T21:01:45.212Z,103356.61
2023-02-09T21:04:12.969Z,103358.93
2023-02-09T21:06:41.018Z,103359.65
2023-02-09T21:09:11.940Z,103360.47
2023-02-09T21:11:39.817Z,103357.39
2023-02-09T21:14:07.600Z,103366.09
2023-02-09T21:16:37.722Z,103369.27
2023-02-09T21:19:05.864Z,103380.05
2023-02-09T21:21:33.624Z,103387.58
2023-02-09T21:24:01.646Z,103373.84
2023-02-09T21:26:31.201Z,103379.70
2023-02-09T21:28:59.550Z,103384.38
2023-02-09T21:31:29.502Z,103381.79
2023-02-09T21:33:57.406Z,103391.27
2023-02-09T21:36:25.227Z,103387.28
2023-02-09T21:38:52.936Z,103384.86
2023-02-09T21:41:42.279Z,103391.27
2023-02-09T21:44:16.699Z,103388.59
2023-02-09T21:46:44.497Z,103388.69
2023-02-09T21:49:13.641Z,103393.27
2023-02-09T21:51:43.025Z,103385.62
2023-02-09T21:54:16.186Z,103380.71
2023-02-09T21:56:44.377Z,103380.71
2023-02-09T21:59:12.077Z,103385.62
2023-02-09T22:01:40.575Z,103380.48
2023-02-09T22:04:08.361Z,103384.47
2023-02-09T22:06:36.180Z,103390.81
2023-02-09T22:09:04.891Z,103388.46
2023-02-09T22:11:32.599Z,103388.36
2023-02-09T22:14:00.460Z,103392.71
2023-02-09T22:16:28.333Z,103393.89
2023-02-09T22:18:56.111Z,103396.93
2023-02-09T22:21:23.905Z,103406.45
2023-02-09T22:23:54.043Z,103406.90
2023-02-09T22:26:22.001Z,103406.67
2023-02-09T22:28:49.939Z,103403.86
2023-02-09T22:31:20.424Z,103404.58
2023-02-09T22:33:49.115Z,103411.35
2023-02-09T22:36:19.350Z,103414.75
2023-02-09T22:38:47.725Z,103427.80
2023-02-09T22:41:24.126Z,103427.08
2023-02-09T22:44:01.879Z,103426.85
2023-02-09T22:46:39.121Z,103424.76
2023-02-09T22:49:13.216Z,103428.35
2023-02-09T22:51:40.975Z,103438.33
2023-02-09T22:54:08.611Z,103434.83
2023-02-09T22:56:36.590Z,103439.63
2023-02-09T22:59:04.384Z,103427.44
2023-02-09T23:01:32.912Z,103427.77
2023-02-09T23:04:00.707Z,103448.34
2023-02-09T23:06:31.041Z,103448.34
2023-02-09T23:09:04.949Z,103448.86
2023-02-09T23:11:33.094Z,103454.02
2023-02-09T23:14:10.522Z,103449.58
2023-02-09T23:16:40.136Z,103446.77
2023-02-09T23:19:10.058Z,103445.39
2023-02-09T23:21:40.371Z,103447.81
2023-02-09T23:24:09.145Z,103449.38
2023-02-09T23:26:37.942Z,103461.22
2023-02-09T23:29:08.634Z,103456.84
2023-02-09T23:31:37.353Z,103455.52
2023-02-09T23:34:05.828Z,103457.55
2023-02-09T23:36:35.557Z,103458.44
2023-02-09T23:39:06.483Z,103464.09
2023-02-09T23:41:35.283Z,103466.41
2023-02-09T23:44:04.131Z,103471.59
2023-02-09T23:46:31.881Z,103474.59
2023-02-09T23:48:59.960Z,103476.69
2023-02-09T23:51:34.012Z,103482.47
2023-02-09T23:54:03.772Z,103484.14
2023-02-09T23:56:37.912Z,103489.54
2023-02-09T23:59:07.916Z,103481.52
